Observation data for Dora on 09/30/2020      Previous  Date  Next       Current Mesonet Observations  Soil Data  Daily Summary Page  Observations in Plain Language
KDR1 300500Z 23010KT 16/M04 A3021 RMK A01 T01581038  RH  026%=      5-min Rain = 0
KDR1 300505Z 23010KT 16/M04 A3021 RMK A01 T01581038  RH  026%=      5-min Rain = 0
KDR1 300510Z 23011KT 16/M04 A3021 RMK A01 T01571039  RH  026%=      5-min Rain = 0
KDR1 300515Z 23011KT 16/M04 A302 RMK A01 T01551039  RH  026%=      5-min Rain = 0
KDR1 300520Z 24010KT 15/M04 A302 RMK A01 T01541039  RH  026%=      5-min Rain = 0
KDR1 300525Z 23010KT 15/M04 A302 RMK A01 T01521039  RH  027%=      5-min Rain = 0
KDR1 300530Z 23011KT 15/M04 A302 RMK A01 T01541039  RH  026%=      5-min Rain = 0
KDR1 300535Z 23011KT 15/M04 A302 RMK A01 T01531039  RH  027%=      5-min Rain = 0
KDR1 300540Z 23010KT 15/M04 A302 RMK A01 T01531038  RH  027%=      5-min Rain = 0
KDR1 300545Z 23010KT 15/M04 A302 RMK A01 T01521038  RH  027%=      5-min Rain = 0
KDR1 300550Z 23011KT 15/M04 A302 RMK A01 T01541038  RH  027%=      5-min Rain = 0
KDR1 300555Z 23011KT 16/M04 A302 RMK A01 T01591037  RH  026%=      5-min Rain = 0
KDR1 300600Z 23011KT 16/M04 A302 RMK A01 T01591037  RH  026%=      5-min Rain = 0
KDR1 300605Z 23011KT 16/M04 A3019 RMK A01 T01591037  RH  026%=      5-min Rain = 0
KDR1 300610Z 23010KT 16/M04 A3019 RMK A01 T01581038  RH  026%=      5-min Rain = 0
KDR1 300615Z 23010KT 16/M04 A302 RMK A01 T01561037  RH  026%=      5-min Rain = 0
KDR1 300620Z 23010KT 15/M04 A302 RMK A01 T01531038  RH  027%=      5-min Rain = 0
KDR1 300625Z 23010KT 15/M04 A302 RMK A01 T01521038  RH  027%=      5-min Rain = 0
KDR1 300630Z 23010KT 15/M04 A3019 RMK A01 T01521038  RH  027%=      5-min Rain = 0
KDR1 300635Z 23010KT 15/M04 A3019 RMK A01 T01511038  RH  027%=      5-min Rain = 0
KDR1 300640Z 23011KT 15/M04 A3019 RMK A01 T01511038  RH  027%=      5-min Rain = 0
KDR1 300645Z 23010KT 15/M04 A3019 RMK A01 T01511038  RH  027%=      5-min Rain = 0
KDR1 300650Z 23010KT 15/M04 A3019 RMK A01 T01511038  RH  027%=      5-min Rain = 0
KDR1 300655Z 23010KT 15/M04 A3019 RMK A01 T01511038  RH  027%=      5-min Rain = 0
KDR1 300700Z 23010KT 15/M04 A3019 RMK A01 T01501038  RH  027%=      5-min Rain = 0
KDR1 300705Z 23010KT 15/M04 A3019 RMK A01 T01501038  RH  027%=      5-min Rain = 0
KDR1 300710Z 23009KT 15/M04 A3019 RMK A01 T01481039  RH  027%=      5-min Rain = 0
KDR1 300715Z 23010KT 15/M04 A3019 RMK A01 T01481038  RH  027%=      5-min Rain = 0
KDR1 300720Z 23009KT 15/M04 A3019 RMK A01 T01481039  RH  027%=      5-min Rain = 0
KDR1 300725Z 23010KT 15/M04 A3019 RMK A01 T01481039  RH  027%=      5-min Rain = 0
KDR1 300730Z 23010KT 15/M04 A3019 RMK A01 T01471039  RH  028%=      5-min Rain = 0
KDR1 300735Z 23009KT 15/M04 A3019 RMK A01 T01461038  RH  028%=      5-min Rain = 0
KDR1 300740Z 23008KT 14/M04 A3019 RMK A01 T01441039  RH  028%=      5-min Rain = 0
KDR1 300745Z 23009KT 14/M04 A3019 RMK A01 T01421039  RH  029%=      5-min Rain = 0
KDR1 300750Z 23009KT 14/M04 A3019 RMK A01 T01411039  RH  029%=      5-min Rain = 0
KDR1 300755Z 23010KT 14/M04 A3019 RMK A01 T01411039  RH  029%=      5-min Rain = 0
KDR1 300800Z 23010KT 14/M04 A3018 RMK A01 T01391039  RH  029%=      5-min Rain = 0
KDR1 300805Z 23011KT 14/M04 A3018 RMK A01 T01401040  RH  029%=      5-min Rain = 0
KDR1 300810Z 23011KT 14/M04 A3018 RMK A01 T01401040  RH  028%=      5-min Rain = 0
KDR1 300815Z 23011KT 14/M04 A3018 RMK A01 T01421041  RH  028%=      5-min Rain = 0
KDR1 300820Z 23012G17KT 14/M04 A3018 RMK A01 T01441042  RH  027%=      5-min Rain = 0
KDR1 300825Z 23012KT 15/M04 A3018 RMK A01 T01451042  RH  027%=      5-min Rain = 0
KDR1 300830Z 23010KT 14/M04 A3018 RMK A01 T01411042  RH  028%=      5-min Rain = 0
KDR1 300835Z 23010KT 14/M04 A3018 RMK A01 T01381043  RH  028%=      5-min Rain = 0
KDR1 300840Z 23011KT 14/M04 A3018 RMK A01 T01381043  RH  028%=      5-min Rain = 0
KDR1 300845Z 23011KT 14/M04 A3018 RMK A01 T01381043  RH  028%=      5-min Rain = 0
KDR1 300850Z 23010KT 14/M04 A3018 RMK A01 T01371044  RH  028%=      5-min Rain = 0
KDR1 300855Z 24009KT 14/M04 A3018 RMK A01 T01361044  RH  028%=      5-min Rain = 0
KDR1 300900Z 24010KT 14/M04 A3018 RMK A01 T01361044  RH  028%=      5-min Rain = 0
KDR1 300905Z 24010KT 14/M04 A3018 RMK A01 T01371044  RH  028%=      5-min Rain = 0
KDR1 300910Z 24010KT 14/M04 A3017 RMK A01 T01381044  RH  028%=      5-min Rain = 0
KDR1 300915Z 24009KT 14/M04 A3017 RMK A01 T01351044  RH  029%=      5-min Rain = 0
KDR1 300920Z 24009KT 13/M04 A3017 RMK A01 T01341044  RH  029%=      5-min Rain = 0
KDR1 300925Z 24009KT 13/M04 A3017 RMK A01 T01331044  RH  029%=      5-min Rain = 0
KDR1 300930Z 24009KT 13/M04 A3017 RMK A01 T01331043  RH  029%=      5-min Rain = 0
KDR1 300935Z 24009KT 13/M04 A3017 RMK A01 T01331043  RH  029%=      5-min Rain = 0
KDR1 300940Z 24009KT 13/M04 A3016 RMK A01 T01331043  RH  029%=      5-min Rain = 0
KDR1 300945Z 24008KT 13/M04 A3016 RMK A01 T01311043  RH  030%=      5-min Rain = 0
KDR1 300950Z 24008KT 13/M04 A3016 RMK A01 T01291043  RH  030%=      5-min Rain = 0
KDR1 300955Z 24008KT 13/M04 A3016 RMK A01 T01291043  RH  030%=      5-min Rain = 0
KDR1 301000Z 24009KT 13/M04 A3016 RMK A01 T01301042  RH  030%=      5-min Rain = 0
KDR1 301005Z 24009KT 13/M04 A3016 RMK A01 T01311042  RH  030%=      5-min Rain = 0
KDR1 301010Z 25009KT 13/M04 A3016 RMK A01 T01301041  RH  030%=      5-min Rain = 0
KDR1 301015Z 25009KT 13/M04 A3017 RMK A01 T01301040  RH  031%=      5-min Rain = 0
KDR1 301020Z 25009KT 13/M04 A3017 RMK A01 T01291040  RH  031%=      5-min Rain = 0
KDR1 301025Z 24010KT 13/M04 A3017 RMK A01 T01311040  RH  030%=      5-min Rain = 0
KDR1 301030Z 24009KT 13/M04 A3017 RMK A01 T01281040  RH  031%=      5-min Rain = 0
KDR1 301035Z 24009KT 13/M04 A3017 RMK A01 T01251041  RH  031%=      5-min Rain = 0
KDR1 301040Z 24009KT 13/M04 A3017 RMK A01 T01251042  RH  031%=      5-min Rain = 0
KDR1 301045Z 24009KT 12/M04 A3017 RMK A01 T01241042  RH  031%=      5-min Rain = 0
KDR1 301050Z 24009KT 12/M04 A3017 RMK A01 T01241041  RH  032%=      5-min Rain = 0
KDR1 301055Z 24009KT 12/M04 A3017 RMK A01 T01241041  RH  031%=      5-min Rain = 0
KDR1 301100Z 24009KT 12/M04 A3017 RMK A01 T01211041  RH  032%=      5-min Rain = 0
KDR1 301105Z 24009KT 12/M04 A3017 RMK A01 T01181041  RH  033%=      5-min Rain = 0
KDR1 301110Z 24009KT 11/M04 A3017 RMK A01 T01141041  RH  033%=      5-min Rain = 0
KDR1 301115Z 24010KT 12/M04 A3016 RMK A01 T01151040  RH  034%=      5-min Rain = 0
KDR1 301120Z 24009KT 12/M04 A3016 RMK A01 T01191040  RH  033%=      5-min Rain = 0
KDR1 301125Z 25009KT 12/M04 A3016 RMK A01 T01181039  RH  033%=      5-min Rain = 0
KDR1 301130Z 25010KT 12/M04 A3017 RMK A01 T01211039  RH  033%=      5-min Rain = 0
KDR1 301135Z 25010KT 12/M04 A3017 RMK A01 T01231039  RH  032%=      5-min Rain = 0
KDR1 301140Z 25010KT 12/M04 A3017 RMK A01 T01241038  RH  032%=      5-min Rain = 0
KDR1 301145Z 25010KT 12/M04 A3017 RMK A01 T01241038  RH  032%=      5-min Rain = 0
KDR1 301150Z 25010KT 12/M04 A3017 RMK A01 T01211038  RH  033%=      5-min Rain = 0
KDR1 301155Z 25010KT 12/M04 A3017 RMK A01 T01181038  RH  034%=      5-min Rain = 0
KDR1 301200Z 25009KT 12/M04 A3017 RMK A01 T01181038  RH  034%=      5-min Rain = 0
KDR1 301205Z 26010KT 12/M04 A3017 RMK A01 T01221036  RH  033%=      5-min Rain = 0
KDR1 301210Z 26010KT 13/M04 A3017 RMK A01 T01291036  RH  032%=      5-min Rain = 0
KDR1 301215Z 26010KT 13/M04 A3017 RMK A01 T01281036  RH  032%=      5-min Rain = 0
KDR1 301220Z 26009KT 12/M04 A3017 RMK A01 T01241036  RH  033%=      5-min Rain = 0
KDR1 301225Z 26009KT 12/M04 A3017 RMK A01 T01211036  RH  033%=      5-min Rain = 0
KDR1 301230Z 26008KT 12/M04 A3017 RMK A01 T01231036  RH  033%=      5-min Rain = 0
KDR1 301235Z 26008KT 12/M04 A3017 RMK A01 T01211036  RH  033%=      5-min Rain = 0
KDR1 301240Z 26008KT 12/M04 A3017 RMK A01 T01231035  RH  033%=      5-min Rain = 0
KDR1 301245Z 26008KT 12/M04 A3017 RMK A01 T01231035  RH  033%=      5-min Rain = 0
KDR1 301250Z 26008KT 12/M03 A3017 RMK A01 T01191034  RH  034%=      5-min Rain = 0
KDR1 301255Z 26008KT 12/M03 A3017 RMK A01 T01191034  RH  034%=      5-min Rain = 0
KDR1 301300Z 27007KT 12/M03 A3017 RMK A01 T01201033  RH  034%=      5-min Rain = 0
KDR1 301305Z 26007KT 12/M03 A3017 RMK A01 T01221033  RH  034%=      5-min Rain = 0
KDR1 301310Z 26008KT 12/M03 A3017 RMK A01 T01241033  RH  033%=      5-min Rain = 0
KDR1 301315Z 26008KT 12/M03 A3017 RMK A01 T01171034  RH  035%=      5-min Rain = 0
KDR1 301320Z 26008KT 11/M03 A3018 RMK A01 T01141033  RH  036%=      5-min Rain = 0
KDR1 301325Z 26007KT 12/M03 A3018 RMK A01 T01181032  RH  035%=      5-min Rain = 0
KDR1 301330Z 26007KT 12/M03 A3018 RMK A01 T01241030  RH  034%=      5-min Rain = 0
KDR1 301335Z 26007KT 13/M03 A3018 RMK A01 T01291029  RH  033%=      5-min Rain = 0
KDR1 301340Z 26007KT 13/M03 A3018 RMK A01 T01331027  RH  033%=      5-min Rain = 0
KDR1 301345Z 26006KT 14/M03 A3018 RMK A01 T01391026  RH  032%=      5-min Rain = 0
KDR1 301350Z 26006KT 14/M02 A3018 RMK A01 T01431023  RH  032%=      5-min Rain = 0
KDR1 301355Z 26006KT 15/M02 A3018 RMK A01 T01491020  RH  031%=      5-min Rain = 0
KDR1 301400Z 26006KT 16/M02 A3018 RMK A01 T01581020  RH  030%=      5-min Rain = 0
KDR1 301405Z 26006KT 17/M02 A3018 RMK A01 T01671019  RH  028%=      5-min Rain = 0
KDR1 301410Z 26006KT 17/M02 A3018 RMK A01 T01741019  RH  027%=      5-min Rain = 0
KDR1 301415Z 27006KT 18/M02 A3019 RMK A01 T01811019  RH  026%=      5-min Rain = 0
KDR1 301420Z 27006KT 19/M02 A3019 RMK A01 T01871018  RH  025%=      5-min Rain = 0
KDR1 301425Z 27006KT 19/M02 A3018 RMK A01 T01931016  RH  024%=      5-min Rain = 0
KDR1 301430Z 27006KT 20/M02 A3018 RMK A01 T01991017  RH  024%=      5-min Rain = 0
KDR1 301435Z 27006KT 20/M02 A3018 RMK A01 T02041015  RH  023%=      5-min Rain = 0
KDR1 301440Z 27007KT 21/M02 A3018 RMK A01 T02071016  RH  023%=      5-min Rain = 0
KDR1 301445Z 27006KT 21/M01 A3018 RMK A01 T02111014  RH  022%=      5-min Rain = 0
KDR1 301450Z 27006KT 21/M01 A3018 RMK A01 T02131014  RH  022%=      5-min Rain = 0
KDR1 301455Z 27006KT 22/M01 A3019 RMK A01 T02171013  RH  022%=      5-min Rain = 0
KDR1 301500Z 27006KT 22/M01 A3019 RMK A01 T02221012  RH  021%=      5-min Rain = 0
KDR1 301505Z 28006KT 23/M01 A3019 RMK A01 T02251011  RH  021%=      5-min Rain = 0
KDR1 301510Z 28007KT 23/M01 A3019 RMK A01 T02291011  RH  020%=      5-min Rain = 0
KDR1 301515Z 29008KT 23/M01 A3019 RMK A01 T02321011  RH  020%=      5-min Rain = 0
KDR1 301520Z 29008KT 24/M01 A3019 RMK A01 T02351010  RH  020%=      5-min Rain = 0
KDR1 301525Z 29008KT 24/M01 A3019 RMK A01 T02411009  RH  019%=      5-min Rain = 0
KDR1 301530Z 30008G13KT 24/M01 A3019 RMK A01 T02431010  RH  019%=      5-min Rain = 0
KDR1 301535Z 30010KT 24/M01 A3019 RMK A01 T02441010  RH  019%=      5-min Rain = 0
KDR1 301540Z 30010KT 25/M01 A3019 RMK A01 T02451011  RH  019%=      5-min Rain = 0
KDR1 301545Z 30009G14KT 25/M01 A3019 RMK A01 T02491009  RH  018%=      5-min Rain = 0
KDR1 301550Z 30009KT 25/M01 A3019 RMK A01 T02491010  RH  018%=      5-min Rain = 0
KDR1 301555Z 30009KT 25/M01 A3019 RMK A01 T02501009  RH  018%=      5-min Rain = 0
KDR1 301600Z 29008KT 25/M01 A3019 RMK A01 T02541009  RH  018%=      5-min Rain = 0
KDR1 301605Z 29007KT 26/M01 A3019 RMK A01 T02561009  RH  018%=      5-min Rain = 0
KDR1 301610Z 29008G17KT 26/M01 A3019 RMK A01 T02571010  RH  017%=      5-min Rain = 0
KDR1 301615Z 30007KT 26/M01 A3019 RMK A01 T02631008  RH  017%=      5-min Rain = 0
KDR1 301620Z 29007KT 26/M01 A3019 RMK A01 T02641008  RH  017%=      5-min Rain = 0
KDR1 301625Z 29009KT 26/M01 A3019 RMK A01 T02641012  RH  016%=      5-min Rain = 0
KDR1 301630Z 29008KT 26/M01 A302 RMK A01 T02641011  RH  017%=      5-min Rain = 0
KDR1 301635Z 29008KT 26/M01 A302 RMK A01 T02631014  RH  016%=      5-min Rain = 0
KDR1 301640Z 29008KT 26/M02 A3019 RMK A01 T02641016  RH  016%=      5-min Rain = 0
KDR1 301645Z 29008KT 27/M02 A3019 RMK A01 T02671015  RH  016%=      5-min Rain = 0
KDR1 301650Z 29007KT 27/M01 A3019 RMK A01 T02691014  RH  016%=      5-min Rain = 0
KDR1 301655Z 29005KT 27/M01 A3019 RMK A01 T02681014  RH  016%=      5-min Rain = 0
KDR1 301700Z 26004KT 27/M02 A3019 RMK A01 T02681016  RH  016%=      5-min Rain = 0
KDR1 301705Z 25005KT 27/M02 A3019 RMK A01 T02701019  RH  015%=      5-min Rain = 0
KDR1 301710Z 26006G12KT 27/M02 A3019 RMK A01 T02731019  RH  015%=      5-min Rain = 0
KDR1 301715Z 27006KT 27/M02 A3019 RMK A01 T02721024  RH  014%=      5-min Rain = 0
KDR1 301720Z 25005KT 28/M03 A3019 RMK A01 T02751025  RH  014%=      5-min Rain = 0
KDR1 301725Z 26004KT 27/M03 A3019 RMK A01 T02741025  RH  014%=      5-min Rain = 0
KDR1 301730Z 27006KT 28/M02 A3019 RMK A01 T02811022  RH  014%=      5-min Rain = 0
KDR1 301735Z 26006KT 28/M02 A3019 RMK A01 T02791024  RH  014%=      5-min Rain = 0
KDR1 301740Z 25004G9KT 28/M03 A3019 RMK A01 T02811031  RH  013%=      5-min Rain = 0
KDR1 301745Z 26004G9KT 28/M03 A3019 RMK A01 T02841027  RH  013%=      5-min Rain = 0
KDR1 301750Z 26003KT 29/M03 A3019 RMK A01 T02901026  RH  013%=      5-min Rain = 0
KDR1 301755Z 24003KT 29/M03 A3019 RMK A01 T02881029  RH  013%=      5-min Rain = 0
KDR1 301800Z 27005KT 29/M02 A3019 RMK A01 T02881024  RH  013%=      5-min Rain = 0
KDR1 301805Z 26004G11KT 29/M02 A3019 RMK A01 T02911024  RH  013%=      5-min Rain = 0
KDR1 301810Z 21003KT 29/M03 A3019 RMK A01 T02941030  RH  012%=      5-min Rain = 0
KDR1 301815Z 28006KT 29/M03 A3019 RMK A01 T02941027  RH  012%=      5-min Rain = 0
KDR1 301820Z 21002KT 30/M03 A3019 RMK A01 T02961032  RH  012%=      5-min Rain = 0
KDR1 301825Z 25004KT 30/M03 A3018 RMK A01 T02991029  RH  012%=      5-min Rain = 0
KDR1 301830Z 23003G8KT 29/M03 A3018 RMK A01 T02941032  RH  012%=      5-min Rain = 0
KDR1 301835Z 16001KT 30/M03 A3018 RMK A01 T02991031  RH  012%=      5-min Rain = 0
KDR1 301840Z 26005KT 30/M03 A3018 RMK A01 T02981030  RH  012%=      5-min Rain = 0
KDR1 301845Z 22006KT 30/M03 A3017 RMK A01 T02991034  RH  011%=      5-min Rain = 0
KDR1 301850Z 23003G8KT 30/M04 A3017 RMK A01 T02971042  RH  011%=      5-min Rain = 0
KDR1 301855Z 23005G18KT 30/M04 A3017 RMK A01 T02981039  RH  011%=      5-min Rain = 0
KDR1 301900Z 21008G13KT 30/M04 A3017 RMK A01 T03011037  RH  011%=      5-min Rain = 0
KDR1 301905Z 23005G11KT 30/M04 A3017 RMK A01 T03021035  RH  011%=      5-min Rain = 0
KDR1 301910Z 19004KT 30/M04 A3017 RMK A01 T03041038  RH  011%=      5-min Rain = 0
KDR1 301915Z 19004G11KT 30/M04 A3017 RMK A01 T03011037  RH  011%=      5-min Rain = 0
KDR1 301920Z 19007G12KT 30/M04 A3016 RMK A01 T03021038  RH  011%=      5-min Rain = 0
KDR1 301925Z 24006KT 31/M03 A3016 RMK A01 T03051033  RH  011%=      5-min Rain = 0
KDR1 301930Z 23004KT 31/M03 A3016 RMK A01 T03051034  RH  011%=      5-min Rain = 0
KDR1 301935Z 19006KT 31/M03 A3016 RMK A01 T03111034  RH  011%=      5-min Rain = 0
KDR1 301940Z 19005G10KT 31/M04 A3016 RMK A01 T03111037  RH  010%=      5-min Rain = 0
KDR1 301945Z 19003KT 31/M04 A3015 RMK A01 T03121036  RH  010%=      5-min Rain = 0
KDR1 301950Z 20004KT 31/M04 A3015 RMK A01 T03101035  RH  011%=      5-min Rain = 0
KDR1 301955Z 19004G11KT 31/M04 A3015 RMK A01 T03131035  RH  010%=      5-min Rain = 0
KDR1 302000Z 19005KT 31/M04 A3014 RMK A01 T03121038  RH  010%=      5-min Rain = 0
KDR1 302005Z 18005G10KT 32/M03 A3014 RMK A01 T03171034  RH  010%=      5-min Rain = 0
KDR1 302010Z 18007G13KT 31/M04 A3014 RMK A01 T03141038  RH  010%=      5-min Rain = 0
KDR1 302015Z 19004KT 31/M04 A3014 RMK A01 T03121038  RH  010%=      5-min Rain = 0
KDR1 302020Z 23007G14KT 31/M03 A3013 RMK A01 T03131034  RH  010%=      5-min Rain = 0
KDR1 302025Z 20009KT 31/M04 A3013 RMK A01 T03121037  RH  010%=      5-min Rain = 0
KDR1 302030Z 22003G8KT 31/M04 A3013 RMK A01 T03111039  RH  010%=      5-min Rain = 0
KDR1 302035Z 17003KT 32/M04 A3013 RMK A01 T03161040  RH  010%=      5-min Rain = 0
KDR1 302040Z 18007KT 32/M04 A3013 RMK A01 T03161040  RH  010%=      5-min Rain = 0
KDR1 302045Z 20006KT 32/M04 A3013 RMK A01 T03151040  RH  010%=      5-min Rain = 0
KDR1 302050Z 19002KT 31/M04 A3013 RMK A01 T03141044  RH  010%=      5-min Rain = 0
KDR1 302055Z 17004G9KT 32/M04 A3013 RMK A01 T03151044  RH  010%=      5-min Rain = 0
KDR1 302100Z 18004KT 32/M04 A3013 RMK A01 T03191042  RH  010%=      5-min Rain = 0
KDR1 302105Z 19006KT 32/M04 A3013 RMK A01 T03191041  RH  010%=      5-min Rain = 0
KDR1 302110Z 22003G8KT 31/M04 A3012 RMK A01 T03141044  RH  010%=      5-min Rain = 0
KDR1 302115Z 20005KT 32/M04 A3012 RMK A01 T03191041  RH  010%=      5-min Rain = 0
KDR1 302120Z 22007KT 32/M04 A3012 RMK A01 T03181038  RH  010%=      5-min Rain = 0
KDR1 302125Z 19005KT 32/M04 A3012 RMK A01 T03191043  RH  009%=      5-min Rain = 0
KDR1 302130Z 17006KT 32/M04 A3012 RMK A01 T03181044  RH  009%=      5-min Rain = 0
KDR1 302135Z 17004G9KT 32/M05 A3012 RMK A01 T03211045  RH  009%=      5-min Rain = 0
KDR1 302140Z 15005KT 32/M05 A3012 RMK A01 T03201048  RH  009%=      5-min Rain = 0
KDR1 302145Z 15003KT 32/M05 A3012 RMK A01 T03151049  RH  009%=      5-min Rain = 0
KDR1 302150Z 08003KT 32/M05 A3012 RMK A01 T03171051  RH  009%=      5-min Rain = 0
KDR1 302155Z 28002G7KT 32/M05 A3012 RMK A01 T03151048  RH  009%=      5-min Rain = 0
KDR1 302200Z 24003KT 32/M05 A3012 RMK A01 T03181047  RH  009%=      5-min Rain = 0
KDR1 302205Z 20003KT 32/M05 A3012 RMK A01 T03191049  RH  009%=      5-min Rain = 0
KDR1 302210Z 18001KT 32/M05 A3012 RMK A01 T03191051  RH  009%=      5-min Rain = 0
KDR1 302215Z 12003KT 32/M05 A3012 RMK A01 T03191049  RH  009%=      5-min Rain = 0
KDR1 302220Z 20003KT 32/M05 A3012 RMK A01 T03171048  RH  009%=      5-min Rain = 0
KDR1 302225Z 16006KT 32/M05 A3012 RMK A01 T03191046  RH  009%=      5-min Rain = 0
KDR1 302230Z 14005KT 32/M05 A3012 RMK A01 T03181051  RH  009%=      5-min Rain = 0
KDR1 302235Z 10005KT 32/M05 A3012 RMK A01 T03161051  RH  009%=      5-min Rain = 0
KDR1 302240Z 13004KT 32/M05 A3012 RMK A01 T03161051  RH  009%=      5-min Rain = 0
KDR1 302245Z 15002KT 32/M05 A3012 RMK A01 T03171050  RH  009%=      5-min Rain = 0
KDR1 302250Z 17004KT 32/M05 A3012 RMK A01 T03191051  RH  009%=      5-min Rain = 0
KDR1 302255Z 16002KT 31/M05 A3012 RMK A01 T03131054  RH  009%=      5-min Rain = 0
KDR1 302300Z 16001G6KT 32/M05 A3012 RMK A01 T03221048  RH  009%=      5-min Rain = 0
KDR1 302305Z 14004KT 32/M05 A3012 RMK A01 T03181053  RH  009%=      5-min Rain = 0
KDR1 302310Z 13004KT 31/M05 A3013 RMK A01 T03141053  RH  009%=      5-min Rain = 0
KDR1 302315Z 13003KT 31/M05 A3013 RMK A01 T03131054  RH  009%=      5-min Rain = 0
KDR1 302320Z 15002KT 31/M05 A3013 RMK A01 T03141054  RH  009%=      5-min Rain = 0
KDR1 302325Z 14001KT 32/M05 A3013 RMK A01 T03191051  RH  009%=      5-min Rain = 0
KDR1 302330Z 15001KT 32/M05 A3013 RMK A01 T03171053  RH  009%=      5-min Rain = 0
KDR1 302335Z 19003KT 31/M05 A3013 RMK A01 T03141046  RH  010%=      5-min Rain = 0
KDR1 302340Z 20003KT 31/M05 A3013 RMK A01 T03111045  RH  010%=      5-min Rain = 0
KDR1 302345Z 18003KT 31/M05 A3013 RMK A01 T03071048  RH  010%=      5-min Rain = 0
KDR1 302350Z 18002KT 31/M05 A3013 RMK A01 T03071045  RH  010%=      5-min Rain = 0
KDR1 302355Z 19001KT 31/M04 A3013 RMK A01 T03061040  RH  010%=      5-min Rain = 0
KDR1 010000Z 19001KT 31/M04 A3013 RMK A01 T03081040  RH  010%=      5-min Rain = 0
KDR1 010005Z 00000KT 31/M05 A3013 RMK A01 T03061045  RH  010%=      5-min Rain = 0
KDR1 010010Z 00000KT 30/M05 A3013 RMK A01 T03021045  RH  010%=      5-min Rain = 0
KDR1 010015Z 00000KT 30/M05 A3013 RMK A01 T02981047  RH  010%=      5-min Rain = 0
KDR1 010020Z 00000KT 30/M05 A3014 RMK A01 T02951050  RH  010%=      5-min Rain = 0
KDR1 010025Z 00000KT 29/M06 A3014 RMK A01 T02921055  RH  010%=      5-min Rain = 0
KDR1 010030Z 00000KT 29/M05 A3014 RMK A01 T02881054  RH  010%=      5-min Rain = 0
KDR1 010035Z 00000KT 28/M05 A3014 RMK A01 T02801050  RH  011%=      5-min Rain = 0
KDR1 010040Z 00000KT 27/M05 A3014 RMK A01 T02731053  RH  011%=      5-min Rain = 0
KDR1 010045Z 00000KT 27/M06 A3014 RMK A01 T02681056  RH  011%=      5-min Rain = 0
KDR1 010050Z 00000KT 27/M06 A3014 RMK A01 T02701058  RH  011%=      5-min Rain = 0
KDR1 010055Z 00000KT 27/M06 A3014 RMK A01 T02741060  RH  011%=      5-min Rain = 0
KDR1 010100Z 00000KT 27/M06 A3014 RMK A01 T02721057  RH  011%=      5-min Rain = 0
KDR1 010105Z 15000KT 26/M05 A3014 RMK A01 T02621052  RH  012%=      5-min Rain = 0
KDR1 010110Z 15001KT 26/M06 A3014 RMK A01 T02641057  RH  012%=      5-min Rain = 0
KDR1 010115Z 12002KT 26/M05 A3015 RMK A01 T02561053  RH  013%=      5-min Rain = 0
KDR1 010120Z 11002KT 25/M06 A3015 RMK A01 T02471055  RH  013%=      5-min Rain = 0
KDR1 010125Z 11002KT 25/M06 A3015 RMK A01 T02541059  RH  012%=      5-min Rain = 0
KDR1 010130Z 11003KT 26/M06 A3015 RMK A01 T02611060  RH  012%=      5-min Rain = 0
KDR1 010135Z 09004G9KT 25/M06 A3015 RMK A01 T02531058  RH  012%=      5-min Rain = 0
KDR1 010140Z 08008KT 24/M06 A3016 RMK A01 T02361058  RH  014%=      5-min Rain = 0
KDR1 010145Z 09007KT 23/M06 A3016 RMK A01 T02341057  RH  014%=      5-min Rain = 0
KDR1 010150Z 09006KT 23/M05 A3016 RMK A01 T02331054  RH  014%=      5-min Rain = 0
KDR1 010155Z 09007KT 22/M06 A3016 RMK A01 T02231055  RH  015%=      5-min Rain = 0
KDR1 010200Z 11006KT 22/M05 A3016 RMK A01 T02191053  RH  016%=      5-min Rain = 0
KDR1 010205Z 11007KT 21/M05 A3017 RMK A01 T02121051  RH  017%=      5-min Rain = 0
KDR1 010210Z 11008KT 21/M05 A3017 RMK A01 T02071050  RH  017%=      5-min Rain = 0
KDR1 010215Z 12008KT 21/M05 A3017 RMK A01 T02081046  RH  018%=      5-min Rain = 0
KDR1 010220Z 12008KT 21/M05 A3017 RMK A01 T02101046  RH  018%=      5-min Rain = 0
KDR1 010225Z 12009KT 21/M04 A3017 RMK A01 T02071044  RH  018%=      5-min Rain = 0
KDR1 010230Z 13009KT 21/M04 A3017 RMK A01 T02071041  RH  019%=      5-min Rain = 0
KDR1 010235Z 13009KT 21/M04 A3017 RMK A01 T02111040  RH  018%=      5-min Rain = 0
KDR1 010240Z 14011KT 21/M04 A3017 RMK A01 T02091039  RH  019%=      5-min Rain = 0
KDR1 010245Z 14010KT 21/M04 A3017 RMK A01 T02061038  RH  019%=      5-min Rain = 0
KDR1 010250Z 15011KT 21/M04 A3018 RMK A01 T02051038  RH  019%=      5-min Rain = 0
KDR1 010255Z 15010KT 21/M04 A3018 RMK A01 T02061037  RH  019%=      5-min Rain = 0
KDR1 010300Z 15009KT 20/M04 A3018 RMK A01 T02021037  RH  020%=      5-min Rain = 0
KDR1 010305Z 15010KT 20/M04 A3018 RMK A01 T01981037  RH  020%=      5-min Rain = 0
KDR1 010310Z 14010KT 19/M04 A3019 RMK A01 T01931037  RH  021%=      5-min Rain = 0
KDR1 010315Z 15009KT 19/M04 A3019 RMK A01 T01901037  RH  021%=      5-min Rain = 0
KDR1 010320Z 16009KT 19/M04 A3019 RMK A01 T01891037  RH  021%=      5-min Rain = 0
KDR1 010325Z 16009KT 19/M04 A3019 RMK A01 T01881038  RH  021%=      5-min Rain = 0
KDR1 010330Z 16010KT 18/M04 A3019 RMK A01 T01821038  RH  022%=      5-min Rain = 0
KDR1 010335Z 16009KT 18/M04 A302 RMK A01 T01831037  RH  022%=      5-min Rain = 0
KDR1 010340Z 16010KT 18/M04 A302 RMK A01 T01821036  RH  023%=      5-min Rain = 0
KDR1 010345Z 16010KT 18/M04 A302 RMK A01 T01841036  RH  022%=      5-min Rain = 0
KDR1 010350Z 16010KT 19/M04 A302 RMK A01 T01861037  RH  022%=      5-min Rain = 0
KDR1 010355Z 16009KT 18/M04 A302 RMK A01 T01811037  RH  023%=      5-min Rain = 0
KDR1 010400Z 17011KT 18/M04 A3021 RMK A01 T01801037  RH  023%=      5-min Rain = 0
KDR1 010405Z 17010KT 18/M04 A3021 RMK A01 T01791038  RH  023%=      5-min Rain = 0
KDR1 010410Z 17011KT 17/M04 A3021 RMK A01 T01741039  RH  023%=      5-min Rain = 0
KDR1 010415Z 17010KT 18/M04 A3021 RMK A01 T01751038  RH  023%=      5-min Rain = 0
KDR1 010420Z 17010KT 18/M04 A3021 RMK A01 T01771038  RH  023%=      5-min Rain = 0
KDR1 010425Z 16009KT 18/M04 A3021 RMK A01 T01771039  RH  023%=      5-min Rain = 0
KDR1 010430Z 16009KT 18/M04 A3021 RMK A01 T01761040  RH  023%=      5-min Rain = 0
KDR1 010435Z 15009KT 18/M04 A3021 RMK A01 T01751040  RH  023%=      5-min Rain = 0
KDR1 010440Z 15009KT 17/M04 A3021 RMK A01 T01711040  RH  023%=      5-min Rain = 0
KDR1 010445Z 15009KT 17/M04 A3021 RMK A01 T01711041  RH  023%=      5-min Rain = 0
KDR1 010450Z 15008KT 17/M04 A3021 RMK A01 T01671041  RH  024%=      5-min Rain = 0
KDR1 010455Z 15008KT 16/M04 A3021 RMK A01 T01631042  RH  024%=      5-min Rain = 0

Page generated in 0.0094 seconds.